sensor_id;sensor_type;location;lat;lon;timestamp;temperature;humidity
16999;DHT22;10211;49.476;11.010;2023-06-10T00:01:33;15.00;99.90
16999;DHT22;10211;49.476;11.010;2023-06-10T00:04:02;14.90;99.90
16999;DHT22;10211;49.476;11.010;2023-06-10T00:06:31;14.90;99.90
16999;DHT22;10211;49.476;11.010;2023-06-10T00:09:01;14.90;99.90
16999;DHT22;10211;49.476;11.010;2023-06-10T00:11:30;14.80;99.90
16999;DHT22;10211;49.476;11.010;2023-06-10T00:13:56;14.80;99.90
16999;DHT22;10211;49.476;11.010;2023-06-10T00:16:23;14.80;99.90
16999;DHT22;10211;49.476;11.010;2023-06-10T00:18:50;14.80;99.90
16999;DHT22;10211;49.476;11.010;2023-06-10T00:21:17;14.80;99.90
16999;DHT22;10211;49.476;11.010;2023-06-10T00:23:45;14.80;99.90
16999;DHT22;10211;49.476;11.010;2023-06-10T00:26:12;14.70;99.90
16999;DHT22;10211;49.476;11.010;2023-06-10T00:28:39;14.70;99.90
16999;DHT22;10211;49.476;11.010;2023-06-10T00:31:06;14.70;99.90
16999;DHT22;10211;49.476;11.010;2023-06-10T00:33:32;14.60;99.90
16999;DHT22;10211;49.476;11.010;2023-06-10T00:35:59;14.60;99.90
16999;DHT22;10211;49.476;11.010;2023-06-10T00:38:25;14.60;99.90
16999;DHT22;10211;49.476;11.010;2023-06-10T00:40:53;14.60;99.90
16999;DHT22;10211;49.476;11.010;2023-06-10T00:43:20;14.60;99.90
16999;DHT22;10211;49.476;11.010;2023-06-10T00:45:47;14.60;99.90
16999;DHT22;10211;49.476;11.010;2023-06-10T00:48:14;14.50;99.90
16999;DHT22;10211;49.476;11.010;2023-06-10T00:50:41;14.50;99.90
16999;DHT22;10211;49.476;11.010;2023-06-10T00:53:08;14.50;99.90
16999;DHT22;10211;49.476;11.010;2023-06-10T00:55:35;14.50;99.90
16999;DHT22;10211;49.476;11.010;2023-06-10T00:58:04;14.50;99.90
16999;DHT22;10211;49.476;11.010;2023-06-10T01:00:31;14.40;99.90
16999;DHT22;10211;49.476;11.010;2023-06-10T01:02:57;14.40;99.90
16999;DHT22;10211;49.476;11.010;2023-06-10T01:05:24;14.40;99.90
16999;DHT22;10211;49.476;11.010;2023-06-10T01:07:59;14.40;99.90
16999;DHT22;10211;49.476;11.010;2023-06-10T01:10:31;14.30;99.90
16999;DHT22;10211;49.476;11.010;2023-06-10T01:13:00;14.30;99.90
16999;DHT22;10211;49.476;11.010;2023-06-10T01:15:29;14.30;99.90
16999;DHT22;10211;49.476;11.010;2023-06-10T01:17:57;14.20;99.90
16999;DHT22;10211;49.476;11.010;2023-06-10T01:20:25;14.20;99.90
16999;DHT22;10211;49.476;11.010;2023-06-10T01:22:54;14.20;99.90
16999;DHT22;10211;49.476;11.010;2023-06-10T01:25:21;14.10;99.90
16999;DHT22;10211;49.476;11.010;2023-06-10T01:27:54;14.10;99.90
16999;DHT22;10211;49.476;11.010;2023-06-10T01:30:28;14.10;99.90
16999;DHT22;10211;49.476;11.010;2023-06-10T01:32:58;14.00;99.90
16999;DHT22;10211;49.476;11.010;2023-06-10T01:35:26;14.00;99.90
16999;DHT22;10211;49.476;11.010;2023-06-10T01:37:57;14.00;99.90
16999;DHT22;10211;49.476;11.010;2023-06-10T01:40:25;14.00;99.90
16999;DHT22;10211;49.476;11.010;2023-06-10T01:42:53;13.90;99.90
16999;DHT22;10211;49.476;11.010;2023-06-10T01:45:19;13.90;99.90
16999;DHT22;10211;49.476;11.010;2023-06-10T01:47:46;13.90;99.90
16999;DHT22;10211;49.476;11.010;2023-06-10T01:50:13;13.80;99.90
16999;DHT22;10211;49.476;11.010;2023-06-10T01:52:39;13.80;99.90
16999;DHT22;10211;49.476;11.010;2023-06-10T01:55:08;13.80;99.90
16999;DHT22;10211;49.476;11.010;2023-06-10T01:57:34;13.80;99.90
16999;DHT22;10211;49.476;11.010;2023-06-10T02:00:01;13.80;99.90
16999;DHT22;10211;49.476;11.010;2023-06-10T02:02:28;13.70;99.90
16999;DHT22;10211;49.476;11.010;2023-06-10T02:04:55;13.70;99.90
16999;DHT22;10211;49.476;11.010;2023-06-10T02:07:22;13.70;99.90
16999;DHT22;10211;49.476;11.010;2023-06-10T02:09:49;13.70;99.90
16999;DHT22;10211;49.476;11.010;2023-06-10T02:12:17;13.70;99.90
16999;DHT22;10211;49.476;11.010;2023-06-10T02:14:44;13.60;99.90
16999;DHT22;10211;49.476;11.010;2023-06-10T02:17:10;13.60;99.90
16999;DHT22;10211;49.476;11.010;2023-06-10T02:19:40;13.60;99.90
16999;DHT22;10211;49.476;11.010;2023-06-10T02:22:08;13.60;99.90
16999;DHT22;10211;49.476;11.010;2023-06-10T02:24:35;13.60;99.90
16999;DHT22;10211;49.476;11.010;2023-06-10T02:27:03;13.60;99.90
16999;DHT22;10211;49.476;11.010;2023-06-10T02:29:33;13.50;99.90
16999;DHT22;10211;49.476;11.010;2023-06-10T02:32:00;13.50;99.90
16999;DHT22;10211;49.476;11.010;2023-06-10T02:34:26;13.50;99.90
16999;DHT22;10211;49.476;11.010;2023-06-10T02:36:54;13.50;99.90
16999;DHT22;10211;49.476;11.010;2023-06-10T02:39:21;13.40;99.90
16999;DHT22;10211;49.476;11.010;2023-06-10T02:41:48;13.40;99.90
16999;DHT22;10211;49.476;11.010;2023-06-10T02:44:15;13.40;99.90
16999;DHT22;10211;49.476;11.010;2023-06-10T02:46:43;13.40;99.90
16999;DHT22;10211;49.476;11.010;2023-06-10T02:51:37;13.30;99.90
16999;DHT22;10211;49.476;11.010;2023-06-10T02:54:04;13.30;99.90
16999;DHT22;10211;49.476;11.010;2023-06-10T02:56:31;13.30;99.90
16999;DHT22;10211;49.476;11.010;2023-06-10T02:58:58;13.30;99.90
16999;DHT22;10211;49.476;11.010;2023-06-10T03:01:25;13.20;99.90
16999;DHT22;10211;49.476;11.010;2023-06-10T03:03:54;13.20;99.90
16999;DHT22;10211;49.476;11.010;2023-06-10T03:06:21;13.20;99.90
16999;DHT22;10211;49.476;11.010;2023-06-10T03:08:50;13.20;99.90
16999;DHT22;10211;49.476;11.010;2023-06-10T03:11:16;13.20;99.90
16999;DHT22;10211;49.476;11.010;2023-06-10T03:13:44;13.20;99.90
16999;DHT22;10211;49.476;11.010;2023-06-10T03:16:12;13.20;99.90
16999;DHT22;10211;49.476;11.010;2023-06-10T03:18:38;13.20;99.90
16999;DHT22;10211;49.476;11.010;2023-06-10T03:21:06;13.20;99.90
16999;DHT22;10211;49.476;11.010;2023-06-10T03:23:34;13.20;99.90
16999;DHT22;10211;49.476;11.010;2023-06-10T03:26:00;13.20;99.90
16999;DHT22;10211;49.476;11.010;2023-06-10T03:28:27;13.20;99.90
16999;DHT22;10211;49.476;11.010;2023-06-10T03:30:54;13.20;99.90
16999;DHT22;10211;49.476;11.010;2023-06-10T03:33:20;13.20;99.90
16999;DHT22;10211;49.476;11.010;2023-06-10T03:35:47;13.20;99.90
16999;DHT22;10211;49.476;11.010;2023-06-10T03:38:15;13.20;99.90
16999;DHT22;10211;49.476;11.010;2023-06-10T03:40:42;13.20;99.90
16999;DHT22;10211;49.476;11.010;2023-06-10T03:43:09;13.20;99.90
16999;DHT22;10211;49.476;11.010;2023-06-10T03:45:35;13.30;99.90
16999;DHT22;10211;49.476;11.010;2023-06-10T03:48:02;13.20;99.90
16999;DHT22;10211;49.476;11.010;2023-06-10T03:50:30;13.30;99.90
16999;DHT22;10211;49.476;11.010;2023-06-10T03:52:57;13.30;99.90
16999;DHT22;10211;49.476;11.010;2023-06-10T03:55:25;13.30;99.90
16999;DHT22;10211;49.476;11.010;2023-06-10T03:57:52;13.30;99.90
16999;DHT22;10211;49.476;11.010;2023-06-10T04:00:19;13.30;99.90
16999;DHT22;10211;49.476;11.010;2023-06-10T04:02:47;13.30;99.90
16999;DHT22;10211;49.476;11.010;2023-06-10T04:05:15;13.30;99.90
16999;DHT22;10211;49.476;11.010;2023-06-10T04:07:43;13.30;99.90
16999;DHT22;10211;49.476;11.010;2023-06-10T04:10:10;13.40;99.90
16999;DHT22;10211;49.476;11.010;2023-06-10T04:12:39;13.40;99.90
16999;DHT22;10211;49.476;11.010;2023-06-10T04:15:07;13.40;99.90
16999;DHT22;10211;49.476;11.010;2023-06-10T04:17:33;13.50;99.90
16999;DHT22;10211;49.476;11.010;2023-06-10T04:20:00;13.50;99.90
16999;DHT22;10211;49.476;11.010;2023-06-10T04:22:27;13.60;99.90
16999;DHT22;10211;49.476;11.010;2023-06-10T04:24:54;13.60;99.90
16999;DHT22;10211;49.476;11.010;2023-06-10T04:27:21;13.70;99.90
16999;DHT22;10211;49.476;11.010;2023-06-10T04:29:49;13.80;99.90
16999;DHT22;10211;49.476;11.010;2023-06-10T04:32:15;13.80;99.90
16999;DHT22;10211;49.476;11.010;2023-06-10T04:34:42;13.90;99.90
16999;DHT22;10211;49.476;11.010;2023-06-10T04:37:09;14.00;99.90
16999;DHT22;10211;49.476;11.010;2023-06-10T04:39:35;14.00;99.90
16999;DHT22;10211;49.476;11.010;2023-06-10T04:42:02;14.10;99.90
16999;DHT22;10211;49.476;11.010;2023-06-10T04:44:29;14.20;99.90
16999;DHT22;10211;49.476;11.010;2023-06-10T04:46:57;14.20;99.90
16999;DHT22;10211;49.476;11.010;2023-06-10T04:49:24;14.30;99.90
16999;DHT22;10211;49.476;11.010;2023-06-10T04:51:51;14.30;99.90
16999;DHT22;10211;49.476;11.010;2023-06-10T04:54:17;14.40;99.90
16999;DHT22;10211;49.476;11.010;2023-06-10T04:56:44;14.50;99.90
16999;DHT22;10211;49.476;11.010;2023-06-10T04:59:11;14.50;99.90
16999;DHT22;10211;49.476;11.010;2023-06-10T05:01:37;14.50;99.90
16999;DHT22;10211;49.476;11.010;2023-06-10T05:04:05;14.60;99.90
16999;DHT22;10211;49.476;11.010;2023-06-10T05:06:32;14.60;99.90
16999;DHT22;10211;49.476;11.010;2023-06-10T05:08:59;14.70;99.90
16999;DHT22;10211;49.476;11.010;2023-06-10T05:11:25;14.80;99.90
16999;DHT22;10211;49.476;11.010;2023-06-10T05:13:52;14.90;99.90
16999;DHT22;10211;49.476;11.010;2023-06-10T05:16:18;15.00;99.90
16999;DHT22;10211;49.476;11.010;2023-06-10T05:18:45;15.20;99.90
16999;DHT22;10211;49.476;11.010;2023-06-10T05:21:13;15.30;99.90
16999;DHT22;10211;49.476;11.010;2023-06-10T05:23:41;15.50;99.90
16999;DHT22;10211;49.476;11.010;2023-06-10T05:26:08;15.70;99.90
16999;DHT22;10211;49.476;11.010;2023-06-10T05:28:34;16.10;99.90
16999;DHT22;10211;49.476;11.010;2023-06-10T05:31:01;16.50;99.90
16999;DHT22;10211;49.476;11.010;2023-06-10T05:33:28;16.80;99.90
16999;DHT22;10211;49.476;11.010;2023-06-10T05:35:54;17.30;99.90
16999;DHT22;10211;49.476;11.010;2023-06-10T05:38:22;18.70;99.90
16999;DHT22;10211;49.476;11.010;2023-06-10T05:40:49;20.90;99.90
16999;DHT22;10211;49.476;11.010;2023-06-10T05:43:16;23.00;99.90
16999;DHT22;10211;49.476;11.010;2023-06-10T05:45:43;24.60;97.00
16999;DHT22;10211;49.476;11.010;2023-06-10T05:48:09;24.80;91.80
16999;DHT22;10211;49.476;11.010;2023-06-10T05:50:36;24.70;91.60
16999;DHT22;10211;49.476;11.010;2023-06-10T05:53:05;24.70;91.20
16999;DHT22;10211;49.476;11.010;2023-06-10T05:55:34;24.30;91.20
16999;DHT22;10211;49.476;11.010;2023-06-10T05:58:01;23.70;91.90
16999;DHT22;10211;49.476;11.010;2023-06-10T06:00:28;23.20;92.60
16999;DHT22;10211;49.476;11.010;2023-06-10T06:02:54;22.70;93.40
16999;DHT22;10211;49.476;11.010;2023-06-10T06:05:22;22.40;94.60
16999;DHT22;10211;49.476;11.010;2023-06-10T06:07:49;22.10;95.40
16999;DHT22;10211;49.476;11.010;2023-06-10T06:10:16;22.30;95.40
16999;DHT22;10211;49.476;11.010;2023-06-10T06:12:45;23.50;94.10
16999;DHT22;10211;49.476;11.010;2023-06-10T06:15:12;24.80;91.00
16999;DHT22;10211;49.476;11.010;2023-06-10T06:17:38;26.10;86.50
16999;DHT22;10211;49.476;11.010;2023-06-10T06:20:06;27.20;81.70
16999;DHT22;10211;49.476;11.010;2023-06-10T06:22:33;27.60;79.10
16999;DHT22;10211;49.476;11.010;2023-06-10T06:25:00;27.50;78.10
16999;DHT22;10211;49.476;11.010;2023-06-10T06:27:26;26.90;77.90
16999;DHT22;10211;49.476;11.010;2023-06-10T06:29:54;26.20;80.30
16999;DHT22;10211;49.476;11.010;2023-06-10T06:32:21;25.60;82.60
16999;DHT22;10211;49.476;11.010;2023-06-10T06:34:50;25.00;82.60
16999;DHT22;10211;49.476;11.010;2023-06-10T06:37:20;24.40;84.40
16999;DHT22;10211;49.476;11.010;2023-06-10T06:39:47;23.50;87.00
16999;DHT22;10211;49.476;11.010;2023-06-10T06:42:14;22.90;90.20
16999;DHT22;10211;49.476;11.010;2023-06-10T06:44:40;22.40;90.90
16999;DHT22;10211;49.476;11.010;2023-06-10T06:47:08;22.30;91.80
16999;DHT22;10211;49.476;11.010;2023-06-10T06:49:35;22.10;92.20
16999;DHT22;10211;49.476;11.010;2023-06-10T06:52:02;21.90;93.40
16999;DHT22;10211;49.476;11.010;2023-06-10T06:54:29;21.60;94.10
16999;DHT22;10211;49.476;11.010;2023-06-10T06:56:56;21.40;94.50
16999;DHT22;10211;49.476;11.010;2023-06-10T06:59:22;21.20;95.40
16999;DHT22;10211;49.476;11.010;2023-06-10T07:01:51;21.10;95.70
16999;DHT22;10211;49.476;11.010;2023-06-10T07:04:20;21.30;96.40
16999;DHT22;10211;49.476;11.010;2023-06-10T07:06:48;21.50;95.90
16999;DHT22;10211;49.476;11.010;2023-06-10T07:09:15;21.60;96.00
16999;DHT22;10211;49.476;11.010;2023-06-10T07:11:41;21.60;96.30
16999;DHT22;10211;49.476;11.010;2023-06-10T07:14:08;21.70;96.70
16999;DHT22;10211;49.476;11.010;2023-06-10T07:16:34;21.80;96.90
16999;DHT22;10211;49.476;11.010;2023-06-10T07:19:01;21.90;96.70
16999;DHT22;10211;49.476;11.010;2023-06-10T07:21:30;22.30;96.50
16999;DHT22;10211;49.476;11.010;2023-06-10T07:23:58;22.70;96.60
16999;DHT22;10211;49.476;11.010;2023-06-10T07:26:24;23.10;95.60
16999;DHT22;10211;49.476;11.010;2023-06-10T07:28:51;23.30;94.90
16999;DHT22;10211;49.476;11.010;2023-06-10T07:31:18;23.30;94.60
16999;DHT22;10211;49.476;11.010;2023-06-10T07:33:44;23.10;94.60
16999;DHT22;10211;49.476;11.010;2023-06-10T07:36:11;23.00;95.30
16999;DHT22;10211;49.476;11.010;2023-06-10T07:38:39;23.00;94.70
16999;DHT22;10211;49.476;11.010;2023-06-10T07:41:07;22.90;94.30
16999;DHT22;10211;49.476;11.010;2023-06-10T07:43:34;22.90;94.20
16999;DHT22;10211;49.476;11.010;2023-06-10T07:46:01;22.90;94.50
16999;DHT22;10211;49.476;11.010;2023-06-10T07:48:27;22.90;93.30
16999;DHT22;10211;49.476;11.010;2023-06-10T07:50:54;22.90;93.90
16999;DHT22;10211;49.476;11.010;2023-06-10T07:53:21;23.00;93.20
16999;DHT22;10211;49.476;11.010;2023-06-10T07:55:49;23.00;92.30
16999;DHT22;10211;49.476;11.010;2023-06-10T07:58:15;23.00;92.50
16999;DHT22;10211;49.476;11.010;2023-06-10T08:00:42;23.10;92.70
16999;DHT22;10211;49.476;11.010;2023-06-10T08:03:09;23.20;93.20
16999;DHT22;10211;49.476;11.010;2023-06-10T08:05:35;23.20;92.60
16999;DHT22;10211;49.476;11.010;2023-06-10T08:08:02;23.20;92.40
16999;DHT22;10211;49.476;11.010;2023-06-10T08:10:29;23.30;92.40
16999;DHT22;10211;49.476;11.010;2023-06-10T08:12:57;23.40;91.80
16999;DHT22;10211;49.476;11.010;2023-06-10T08:15:24;23.40;91.70
16999;DHT22;10211;49.476;11.010;2023-06-10T08:17:50;23.50;91.40
16999;DHT22;10211;49.476;11.010;2023-06-10T08:20:18;23.50;90.80
16999;DHT22;10211;49.476;11.010;2023-06-10T08:22:44;23.60;91.10
16999;DHT22;10211;49.476;11.010;2023-06-10T08:25:11;23.80;90.70
16999;DHT22;10211;49.476;11.010;2023-06-10T08:27:38;24.20;89.20
16999;DHT22;10211;49.476;11.010;2023-06-10T08:30:07;24.30;89.50
16999;DHT22;10211;49.476;11.010;2023-06-10T08:32:36;24.30;88.20
16999;DHT22;10211;49.476;11.010;2023-06-10T08:35:03;24.30;87.60
16999;DHT22;10211;49.476;11.010;2023-06-10T08:37:30;24.40;87.50
16999;DHT22;10211;49.476;11.010;2023-06-10T08:39:56;24.40;86.00
16999;DHT22;10211;49.476;11.010;2023-06-10T08:42:26;24.40;85.20
16999;DHT22;10211;49.476;11.010;2023-06-10T08:44:55;24.40;86.00
16999;DHT22;10211;49.476;11.010;2023-06-10T08:47:24;24.60;85.90
16999;DHT22;10211;49.476;11.010;2023-06-10T08:49:53;24.60;85.70
16999;DHT22;10211;49.476;11.010;2023-06-10T08:52:22;24.60;85.90
16999;DHT22;10211;49.476;11.010;2023-06-10T08:54:54;24.60;86.40
16999;DHT22;10211;49.476;11.010;2023-06-10T08:57:23;24.80;84.10
16999;DHT22;10211;49.476;11.010;2023-06-10T08:59:51;24.90;83.20
16999;DHT22;10211;49.476;11.010;2023-06-10T09:02:19;24.90;83.80
16999;DHT22;10211;49.476;11.010;2023-06-10T09:04:47;25.00;83.20
16999;DHT22;10211;49.476;11.010;2023-06-10T09:07:15;25.10;82.10
16999;DHT22;10211;49.476;11.010;2023-06-10T09:09:43;25.20;81.80
16999;DHT22;10211;49.476;11.010;2023-06-10T09:12:10;25.30;82.10
16999;DHT22;10211;49.476;11.010;2023-06-10T09:14:36;25.40;81.20
16999;DHT22;10211;49.476;11.010;2023-06-10T09:17:05;25.50;81.60
16999;DHT22;10211;49.476;11.010;2023-06-10T09:19:32;25.60;82.40
16999;DHT22;10211;49.476;11.010;2023-06-10T09:22:00;25.60;81.70
16999;DHT22;10211;49.476;11.010;2023-06-10T09:24:27;25.80;79.60
16999;DHT22;10211;49.476;11.010;2023-06-10T09:27:02;26.00;80.20
16999;DHT22;10211;49.476;11.010;2023-06-10T09:29:29;26.40;81.20
16999;DHT22;10211;49.476;11.010;2023-06-10T09:31:55;26.70;79.30
16999;DHT22;10211;49.476;11.010;2023-06-10T09:34:25;26.90;78.70
16999;DHT22;10211;49.476;11.010;2023-06-10T09:36:53;27.10;78.00
16999;DHT22;10211;49.476;11.010;2023-06-10T09:39:22;27.40;77.90
16999;DHT22;10211;49.476;11.010;2023-06-10T09:41:49;27.60;75.80
16999;DHT22;10211;49.476;11.010;2023-06-10T09:44:18;28.00;74.00
16999;DHT22;10211;49.476;11.010;2023-06-10T09:46:46;28.60;74.20
16999;DHT22;10211;49.476;11.010;2023-06-10T09:49:13;29.10;71.30
16999;DHT22;10211;49.476;11.010;2023-06-10T09:51:49;29.90;70.20
16999;DHT22;10211;49.476;11.010;2023-06-10T09:54:16;31.00;68.70
16999;DHT22;10211;49.476;11.010;2023-06-10T09:56:46;31.20;66.00
16999;DHT22;10211;49.476;11.010;2023-06-10T09:59:13;31.60;65.70
16999;DHT22;10211;49.476;11.010;2023-06-10T10:01:40;33.90;62.00
16999;DHT22;10211;49.476;11.010;2023-06-10T10:04:07;36.90;55.50
16999;DHT22;10211;49.476;11.010;2023-06-10T10:06:34;39.50;52.20
16999;DHT22;10211;49.476;11.010;2023-06-10T10:09:01;41.70;47.00
16999;DHT22;10211;49.476;11.010;2023-06-10T10:11:30;42.00;46.00
16999;DHT22;10211;49.476;11.010;2023-06-10T10:13:59;43.50;44.80
16999;DHT22;10211;49.476;11.010;2023-06-10T10:16:30;45.20;41.70
16999;DHT22;10211;49.476;11.010;2023-06-10T10:19:04;47.00;39.90
16999;DHT22;10211;49.476;11.010;2023-06-10T10:21:37;45.60;39.20
16999;DHT22;10211;49.476;11.010;2023-06-10T10:24:12;45.10;39.40
16999;DHT22;10211;49.476;11.010;2023-06-10T10:26:42;45.80;39.20
16999;DHT22;10211;49.476;11.010;2023-06-10T10:29:16;47.20;37.00
16999;DHT22;10211;49.476;11.010;2023-06-10T10:31:48;48.20;36.50
16999;DHT22;10211;49.476;11.010;2023-06-10T10:34:21;48.30;36.40
16999;DHT22;10211;49.476;11.010;2023-06-10T10:36:48;48.80;35.60
16999;DHT22;10211;49.476;11.010;2023-06-10T10:39:15;49.30;35.80
16999;DHT22;10211;49.476;11.010;2023-06-10T10:41:43;49.90;34.20
16999;DHT22;10211;49.476;11.010;2023-06-10T10:44:12;50.20;34.20
16999;DHT22;10211;49.476;11.010;2023-06-10T10:46:42;50.10;34.20
16999;DHT22;10211;49.476;11.010;2023-06-10T10:49:10;49.20;34.30
16999;DHT22;10211;49.476;11.010;2023-06-10T10:51:54;46.20;35.40
16999;DHT22;10211;49.476;11.010;2023-06-10T10:54:28;43.70;38.50
16999;DHT22;10211;49.476;11.010;2023-06-10T10:57:11;40.90;40.60
16999;DHT22;10211;49.476;11.010;2023-06-10T10:59:51;38.00;43.70
16999;DHT22;10211;49.476;11.010;2023-06-10T11:02:18;36.90;46.40
16999;DHT22;10211;49.476;11.010;2023-06-10T11:04:58;36.30;46.70
16999;DHT22;10211;49.476;11.010;2023-06-10T11:07:25;35.30;48.60
16999;DHT22;10211;49.476;11.010;2023-06-10T11:09:59;33.90;50.00
16999;DHT22;10211;49.476;11.010;2023-06-10T11:12:28;32.90;52.50
16999;DHT22;10211;49.476;11.010;2023-06-10T11:15:07;32.00;53.60
16999;DHT22;10211;49.476;11.010;2023-06-10T11:17:34;32.10;54.10
16999;DHT22;10211;49.476;11.010;2023-06-10T11:20:01;33.40;52.70
16999;DHT22;10211;49.476;11.010;2023-06-10T11:22:28;34.40;51.10
16999;DHT22;10211;49.476;11.010;2023-06-10T11:24:55;34.30;51.20
16999;DHT22;10211;49.476;11.010;2023-06-10T11:27:24;34.10;51.50
16999;DHT22;10211;49.476;11.010;2023-06-10T11:29:58;34.50;52.00
16999;DHT22;10211;49.476;11.010;2023-06-10T11:32:32;35.30;50.80
16999;DHT22;10211;49.476;11.010;2023-06-10T11:34:59;35.10;51.00
16999;DHT22;10211;49.476;11.010;2023-06-10T11:37:26;35.70;50.70
16999;DHT22;10211;49.476;11.010;2023-06-10T11:39:54;37.40;48.40
16999;DHT22;10211;49.476;11.010;2023-06-10T11:42:22;39.40;46.00
16999;DHT22;10211;49.476;11.010;2023-06-10T11:44:49;41.70;42.40
16999;DHT22;10211;49.476;11.010;2023-06-10T11:47:16;41.90;41.40
16999;DHT22;10211;49.476;11.010;2023-06-10T11:49:44;41.10;42.10
16999;DHT22;10211;49.476;11.010;2023-06-10T11:52:12;40.00;43.40
16999;DHT22;10211;49.476;11.010;2023-06-10T11:54:38;38.80;44.30
16999;DHT22;10211;49.476;11.010;2023-06-10T11:57:05;39.20;45.30
16999;DHT22;10211;49.476;11.010;2023-06-10T11:59:34;40.70;43.40
16999;DHT22;10211;49.476;11.010;2023-06-10T12:02:01;42.10;42.80
16999;DHT22;10211;49.476;11.010;2023-06-10T12:04:28;43.50;41.40
16999;DHT22;10211;49.476;11.010;2023-06-10T12:06:56;43.60;40.00
16999;DHT22;10211;49.476;11.010;2023-06-10T12:09:24;42.00;40.90
16999;DHT22;10211;49.476;11.010;2023-06-10T12:11:52;41.20;42.10
16999;DHT22;10211;49.476;11.010;2023-06-10T12:14:50;40.70;41.60
16999;DHT22;10211;49.476;11.010;2023-06-10T12:17:19;40.20;41.00
16999;DHT22;10211;49.476;11.010;2023-06-10T12:19:47;39.10;42.70
16999;DHT22;10211;49.476;11.010;2023-06-10T12:22:15;39.00;43.00
16999;DHT22;10211;49.476;11.010;2023-06-10T12:24:45;39.10;42.80
16999;DHT22;10211;49.476;11.010;2023-06-10T12:27:12;38.80;43.70
16999;DHT22;10211;49.476;11.010;2023-06-10T12:29:39;38.30;42.40
16999;DHT22;10211;49.476;11.010;2023-06-10T12:32:06;38.30;43.50
16999;DHT22;10211;49.476;11.010;2023-06-10T12:34:35;38.80;43.60
16999;DHT22;10211;49.476;11.010;2023-06-10T12:37:05;39.10;42.30
16999;DHT22;10211;49.476;11.010;2023-06-10T12:39:33;39.30;42.20
16999;DHT22;10211;49.476;11.010;2023-06-10T12:42:01;39.80;42.90
16999;DHT22;10211;49.476;11.010;2023-06-10T12:44:29;40.00;42.90
16999;DHT22;10211;49.476;11.010;2023-06-10T12:46:56;39.80;42.10
16999;DHT22;10211;49.476;11.010;2023-06-10T12:49:23;39.40;42.40
16999;DHT22;10211;49.476;11.010;2023-06-10T12:51:50;38.90;42.30
16999;DHT22;10211;49.476;11.010;2023-06-10T12:54:17;38.40;42.80
16999;DHT22;10211;49.476;11.010;2023-06-10T12:56:45;37.40;44.40
16999;DHT22;10211;49.476;11.010;2023-06-10T12:59:12;36.20;46.00
16999;DHT22;10211;49.476;11.010;2023-06-10T13:01:38;35.20;48.10
16999;DHT22;10211;49.476;11.010;2023-06-10T13:04:05;34.00;49.80
16999;DHT22;10211;49.476;11.010;2023-06-10T13:06:32;33.10;50.80
16999;DHT22;10211;49.476;11.010;2023-06-10T13:09:05;32.40;52.40
16999;DHT22;10211;49.476;11.010;2023-06-10T13:11:32;31.80;53.70
16999;DHT22;10211;49.476;11.010;2023-06-10T13:14:00;31.40;54.70
16999;DHT22;10211;49.476;11.010;2023-06-10T13:16:28;31.10;55.20
16999;DHT22;10211;49.476;11.010;2023-06-10T13:18:55;31.00;55.50
16999;DHT22;10211;49.476;11.010;2023-06-10T13:21:21;30.80;56.30
16999;DHT22;10211;49.476;11.010;2023-06-10T13:23:48;30.90;55.20
16999;DHT22;10211;49.476;11.010;2023-06-10T13:26:16;31.30;53.80
16999;DHT22;10211;49.476;11.010;2023-06-10T13:28:43;31.50;54.40
16999;DHT22;10211;49.476;11.010;2023-06-10T13:31:11;31.60;53.90
16999;DHT22;10211;49.476;11.010;2023-06-10T13:33:38;31.70;53.80
16999;DHT22;10211;49.476;11.010;2023-06-10T13:36:05;32.10;53.90
16999;DHT22;10211;49.476;11.010;2023-06-10T13:38:31;32.20;52.40
16999;DHT22;10211;49.476;11.010;2023-06-10T13:40:58;32.20;51.30
16999;DHT22;10211;49.476;11.010;2023-06-10T13:43:25;32.20;52.30
16999;DHT22;10211;49.476;11.010;2023-06-10T13:45:51;32.30;52.00
16999;DHT22;10211;49.476;11.010;2023-06-10T13:48:19;32.50;51.90
16999;DHT22;10211;49.476;11.010;2023-06-10T13:50:46;32.30;52.60
16999;DHT22;10211;49.476;11.010;2023-06-10T13:53:13;31.90;54.10
16999;DHT22;10211;49.476;11.010;2023-06-10T13:55:40;31.50;55.50
16999;DHT22;10211;49.476;11.010;2023-06-10T13:58:07;30.90;55.70
16999;DHT22;10211;49.476;11.010;2023-06-10T14:00:33;30.40;55.60
16999;DHT22;10211;49.476;11.010;2023-06-10T14:03:00;30.00;55.90
16999;DHT22;10211;49.476;11.010;2023-06-10T14:05:29;29.70;56.90
16999;DHT22;10211;49.476;11.010;2023-06-10T14:07:57;29.40;57.50
16999;DHT22;10211;49.476;11.010;2023-06-10T14:10:23;29.30;57.50
16999;DHT22;10211;49.476;11.010;2023-06-10T14:12:50;29.20;58.10
16999;DHT22;10211;49.476;11.010;2023-06-10T14:15:17;29.00;57.80
16999;DHT22;10211;49.476;11.010;2023-06-10T14:17:44;28.90;58.20
16999;DHT22;10211;49.476;11.010;2023-06-10T14:20:11;28.70;59.20
16999;DHT22;10211;49.476;11.010;2023-06-10T14:22:39;28.70;58.80
16999;DHT22;10211;49.476;11.010;2023-06-10T14:25:07;29.10;58.80
16999;DHT22;10211;49.476;11.010;2023-06-10T14:27:34;29.60;58.40
16999;DHT22;10211;49.476;11.010;2023-06-10T14:30:00;30.20;57.50
16999;DHT22;10211;49.476;11.010;2023-06-10T14:32:28;30.90;56.00
16999;DHT22;10211;49.476;11.010;2023-06-10T14:35:09;31.30;55.30
16999;DHT22;10211;49.476;11.010;2023-06-10T14:37:39;31.60;55.50
16999;DHT22;10211;49.476;11.010;2023-06-10T14:40:07;30.90;55.60
16999;DHT22;10211;49.476;11.010;2023-06-10T14:42:34;30.70;56.40
16999;DHT22;10211;49.476;11.010;2023-06-10T14:45:01;30.40;56.40
16999;DHT22;10211;49.476;11.010;2023-06-10T14:47:27;30.00;56.20
16999;DHT22;10211;49.476;11.010;2023-06-10T14:49:54;29.80;57.20
16999;DHT22;10211;49.476;11.010;2023-06-10T14:52:21;29.40;58.70
16999;DHT22;10211;49.476;11.010;2023-06-10T14:54:49;29.30;59.40
16999;DHT22;10211;49.476;11.010;2023-06-10T14:57:18;29.50;58.90
16999;DHT22;10211;49.476;11.010;2023-06-10T14:59:44;29.80;56.60
16999;DHT22;10211;49.476;11.010;2023-06-10T15:02:11;30.00;57.40
16999;DHT22;10211;49.476;11.010;2023-06-10T15:04:38;30.20;57.80
16999;DHT22;10211;49.476;11.010;2023-06-10T15:07:05;30.30;56.50
16999;DHT22;10211;49.476;11.010;2023-06-10T15:09:31;30.30;56.60
16999;DHT22;10211;49.476;11.010;2023-06-10T15:11:59;30.30;56.40
16999;DHT22;10211;49.476;11.010;2023-06-10T15:14:26;30.30;56.80
16999;DHT22;10211;49.476;11.010;2023-06-10T15:16:53;30.40;56.80
16999;DHT22;10211;49.476;11.010;2023-06-10T15:19:21;30.50;55.90
16999;DHT22;10211;49.476;11.010;2023-06-10T15:21:47;30.30;56.10